createdAt,value
2022-11-16T00:01:21.349Z,12.55
2022-11-16T00:03:48.096Z,13.07
2022-11-16T00:06:15.022Z,15.95
2022-11-16T00:08:42.434Z,11.82
2022-11-16T00:11:08.816Z,15.07
2022-11-16T00:13:35.566Z,12.73
2022-11-16T00:16:02.114Z,11.13
2022-11-16T00:18:28.695Z,14.60
2022-11-16T00:20:55.336Z,15.75
2022-11-16T00:23:22.151Z,11.68
2022-11-16T00:25:48.583Z,11.95
2022-11-16T00:28:15.001Z,16.30
2022-11-16T00:30:41.340Z,14.68
2022-11-16T00:33:08.386Z,11.90
2022-11-16T00:35:38.643Z,10.45
2022-11-16T00:38:05.234Z,13.43
2022-11-16T00:40:31.627Z,15.65
2022-11-16T00:42:57.967Z,10.63
2022-11-16T00:45:24.382Z,9.50
2022-11-16T00:47:50.730Z,10.68
2022-11-16T00:50:17.159Z,13.60
2022-11-16T00:52:43.733Z,10.57
2022-11-16T00:55:10.113Z,10.55
2022-11-16T00:57:36.468Z,10.07
2022-11-16T01:00:04.293Z,11.82
2022-11-16T01:02:30.641Z,12.27
2022-11-16T01:04:57.026Z,10.90
2022-11-16T01:07:23.455Z,12.25
2022-11-16T01:09:49.997Z,11.18
2022-11-16T01:12:17.220Z,11.55
2022-11-16T01:14:44.615Z,12.85
2022-11-16T01:17:11.192Z,10.82
2022-11-16T01:19:37.754Z,13.95
2022-11-16T01:22:04.497Z,11.15
2022-11-16T01:24:31.002Z,9.80
2022-11-16T01:26:58.793Z,13.23
2022-11-16T01:29:25.831Z,10.43
2022-11-16T01:31:52.205Z,13.40
2022-11-16T01:34:18.606Z,12.15
2022-11-16T01:36:45.030Z,13.27
2022-11-16T01:39:12.911Z,12.63
2022-11-16T01:41:40.155Z,11.55
2022-11-16T01:44:26.453Z,12.20
2022-11-16T01:46:52.918Z,11.05
2022-11-16T01:49:22.328Z,9.70
2022-11-16T01:51:57.452Z,12.18
2022-11-16T01:54:23.985Z,13.27
2022-11-16T01:56:51.110Z,10.25
2022-11-16T01:59:17.876Z,14.98
2022-11-16T02:01:44.330Z,14.35
2022-11-16T02:04:11.379Z,11.68
2022-11-16T02:06:56.289Z,13.50
2022-11-16T02:09:49.387Z,11.43
2022-11-16T02:12:15.781Z,10.77
2022-11-16T02:14:48.522Z,17.25
2022-11-16T02:17:17.996Z,12.13
2022-11-16T02:20:03.172Z,12.15
2022-11-16T02:22:57.839Z,11.23
2022-11-16T02:25:24.155Z,10.70
2022-11-16T02:28:10.781Z,11.18
2022-11-16T02:30:40.416Z,11.35
2022-11-16T02:33:12.050Z,17.50
2022-11-16T02:35:42.277Z,11.88
2022-11-16T02:38:15.020Z,11.02
2022-11-16T02:40:43.595Z,10.23
2022-11-16T02:43:12.248Z,11.68
2022-11-16T02:45:47.725Z,7.75
2022-11-16T02:48:19.221Z,10.35
2022-11-16T02:50:46.744Z,7.80
2022-11-16T02:53:13.134Z,7.88
2022-11-16T02:55:39.484Z,7.90
2022-11-16T02:58:07.013Z,6.95
2022-11-16T03:00:43.587Z,10.32
2022-11-16T03:03:13.076Z,6.65
2022-11-16T03:05:43.028Z,6.80
2022-11-16T03:08:28.120Z,6.78
2022-11-16T03:11:15.283Z,7.43
2022-11-16T03:13:42.036Z,6.50
2022-11-16T03:16:14.517Z,5.95
2022-11-16T03:18:41.957Z,6.97
2022-11-16T03:21:15.189Z,6.20
2022-11-16T03:23:42.207Z,7.57
2022-11-16T03:26:10.460Z,6.15
2022-11-16T03:28:41.240Z,7.05
2022-11-16T03:31:17.553Z,7.00
2022-11-16T03:33:45.997Z,5.60
2022-11-16T03:36:17.935Z,5.07
2022-11-16T03:38:45.763Z,5.05
2022-11-16T03:41:13.192Z,5.32
2022-11-16T03:43:40.305Z,4.25
2022-11-16T03:46:06.858Z,5.38
2022-11-16T03:48:37.145Z,5.20
2022-11-16T03:51:04.339Z,5.55
2022-11-16T03:53:30.759Z,6.80
2022-11-16T03:55:57.193Z,5.15
2022-11-16T03:58:23.606Z,5.57
2022-11-16T04:00:49.965Z,4.35
2022-11-16T04:03:16.373Z,5.88
2022-11-16T04:06:01.580Z,5.45
2022-11-16T04:08:46.545Z,5.45
2022-11-16T04:11:32.286Z,6.32
2022-11-16T04:14:17.237Z,5.53
2022-11-16T04:17:02.174Z,7.28
2022-11-16T04:19:47.093Z,6.20
2022-11-16T04:22:37.586Z,6.65
2022-11-16T04:25:15.766Z,5.25
2022-11-16T04:28:00.746Z,6.90
2022-11-16T04:30:47.155Z,8.43
2022-11-16T04:33:32.203Z,6.50
2022-11-16T04:36:20.544Z,6.20
2022-11-16T04:38:47.240Z,5.20
2022-11-16T04:41:33.541Z,6.82
2022-11-16T04:43:59.960Z,6.78
2022-11-16T04:46:45.148Z,6.55
2022-11-16T04:49:11.451Z,6.37
2022-11-16T04:51:37.857Z,6.60
2022-11-16T04:54:04.402Z,6.72
2022-11-16T04:56:30.788Z,6.93
2022-11-16T04:58:57.188Z,6.30
2022-11-16T05:01:43.530Z,6.47
2022-11-16T05:04:10.014Z,6.43
2022-11-16T05:06:36.494Z,7.55
2022-11-16T05:09:02.956Z,7.25
2022-11-16T05:11:29.525Z,7.78
2022-11-16T05:13:55.875Z,7.13
2022-11-16T05:16:22.241Z,7.10
2022-11-16T05:19:08.586Z,7.47
2022-11-16T05:21:35.024Z,9.25
2022-11-16T05:24:20.144Z,7.97
2022-11-16T05:26:46.753Z,5.80
2022-11-16T05:29:13.186Z,7.85
2022-11-16T05:31:40.634Z,10.30
2022-11-16T05:34:08.284Z,7.18
2022-11-16T05:36:34.664Z,7.25
2022-11-16T05:39:01.259Z,8.75
2022-11-16T05:41:27.687Z,5.78
2022-11-16T05:43:55.347Z,6.82
2022-11-16T05:46:23.023Z,7.70
2022-11-16T05:48:49.477Z,9.45
2022-11-16T05:51:16.063Z,7.78
2022-11-16T05:53:44.162Z,6.72
2022-11-16T05:56:10.974Z,7.88
2022-11-16T05:58:37.610Z,6.90
2022-11-16T06:01:04.114Z,8.20
2022-11-16T06:03:31.008Z,6.32
2022-11-16T06:05:58.061Z,8.23
2022-11-16T06:08:24.698Z,7.40
2022-11-16T06:10:51.063Z,7.55
2022-11-16T06:13:17.521Z,7.38
2022-11-16T06:15:50.221Z,9.38
2022-11-16T06:18:16.552Z,7.70
2022-11-16T06:20:43.114Z,7.43
2022-11-16T06:23:09.457Z,8.85
2022-11-16T06:25:38.054Z,10.30
2022-11-16T06:28:07.944Z,8.00
2022-11-16T06:30:34.807Z,9.18
2022-11-16T06:33:01.218Z,8.05
2022-11-16T06:35:27.636Z,7.20
2022-11-16T06:37:54.028Z,7.35
2022-11-16T06:40:20.416Z,6.97
2022-11-16T06:42:46.885Z,6.18
2022-11-16T06:45:13.342Z,8.98
2022-11-16T06:47:39.726Z,12.13
2022-11-16T06:50:06.372Z,12.55
2022-11-16T06:52:32.807Z,11.30
2022-11-16T06:54:59.229Z,8.27
2022-11-16T06:57:25.600Z,7.97
2022-11-16T06:59:51.943Z,8.27
2022-11-16T07:02:21.339Z,9.75
2022-11-16T07:04:47.747Z,7.05
2022-11-16T07:07:15.842Z,7.22
2022-11-16T07:09:44.549Z,7.68
2022-11-16T07:12:10.980Z,9.27
2022-11-16T07:14:37.532Z,8.05
2022-11-16T07:17:09.300Z,7.88
2022-11-16T07:19:36.797Z,6.50
2022-11-16T07:22:04.312Z,7.95
2022-11-16T07:24:30.722Z,8.80
2022-11-16T07:26:57.398Z,7.60
2022-11-16T07:29:24.546Z,6.53
2022-11-16T07:31:51.172Z,9.18
2022-11-16T07:34:17.520Z,9.70
2022-11-16T07:36:44.485Z,8.07
2022-11-16T07:39:11.033Z,10.93
2022-11-16T07:41:40.183Z,8.27
2022-11-16T07:44:11.765Z,8.05
2022-11-16T07:46:46.627Z,8.68
2022-11-16T07:49:15.064Z,6.82
2022-11-16T07:51:41.549Z,8.48
2022-11-16T07:54:08.276Z,6.85
2022-11-16T07:56:34.700Z,7.13
2022-11-16T07:59:01.970Z,8.23
2022-11-16T08:01:28.364Z,7.00
2022-11-16T08:03:54.822Z,7.30
2022-11-16T08:06:23.401Z,7.38
2022-11-16T08:08:55.125Z,6.78
2022-11-16T08:11:24.358Z,6.60
2022-11-16T08:13:50.920Z,7.38
2022-11-16T08:16:18.909Z,7.45
2022-11-16T08:18:45.490Z,10.05
2022-11-16T08:21:12.714Z,7.90
2022-11-16T08:23:40.330Z,6.53
2022-11-16T08:26:11.053Z,7.72
2022-11-16T08:28:37.678Z,10.23
2022-11-16T08:31:17.446Z,9.55
2022-11-16T08:33:44.225Z,7.35
2022-11-16T08:36:14.399Z,9.63
2022-11-16T08:38:41.028Z,7.28
2022-11-16T08:41:07.803Z,9.00
2022-11-16T08:43:34.203Z,8.55
2022-11-16T08:46:00.747Z,7.75
2022-11-16T08:48:27.386Z,9.95
2022-11-16T08:51:16.281Z,8.35
2022-11-16T08:53:40.616Z,9.98
2022-11-16T08:56:11.817Z,11.52
2022-11-16T08:58:38.677Z,10.57
2022-11-16T09:01:09.992Z,11.23
2022-11-16T09:03:37.591Z,12.68
2022-11-16T09:06:04.480Z,16.67
2022-11-16T09:08:31.749Z,16.40
2022-11-16T09:10:58.474Z,11.68
2022-11-16T09:13:25.257Z,7.72
2022-11-16T09:15:58.725Z,13.48
2022-11-16T09:18:25.383Z,12.07
2022-11-16T09:20:51.948Z,8.18
2022-11-16T09:23:23.743Z,8.23
2022-11-16T09:25:51.585Z,8.25
2022-11-16T09:28:18.456Z,8.80
2022-11-16T09:30:45.494Z,10.10
2022-11-16T09:33:12.324Z,10.63
2022-11-16T09:35:38.868Z,10.20
2022-11-16T09:38:05.620Z,8.40
2022-11-16T09:40:36.455Z,8.50
2022-11-16T09:43:02.916Z,15.20
2022-11-16T09:45:41.463Z,11.10
2022-11-16T09:48:12.080Z,10.68
2022-11-16T09:50:47.053Z,11.30
2022-11-16T09:53:13.363Z,7.57
2022-11-16T09:55:47.349Z,6.65
2022-11-16T09:58:17.789Z,7.18
2022-11-16T10:00:46.660Z,6.78
2022-11-16T10:03:13.738Z,6.15
2022-11-16T10:05:45.971Z,7.18
2022-11-16T10:08:24.980Z,5.55
2022-11-16T10:10:59.114Z,8.27
2022-11-16T10:13:45.770Z,4.88
2022-11-16T10:16:16.995Z,5.82
2022-11-16T10:18:43.334Z,4.40
2022-11-16T10:21:09.737Z,6.10
2022-11-16T10:23:51.287Z,4.65
2022-11-16T10:26:23.817Z,5.15
2022-11-16T10:28:56.940Z,6.93
2022-11-16T10:31:23.414Z,5.55
2022-11-16T10:33:50.756Z,5.75
2022-11-16T10:36:18.038Z,4.72
2022-11-16T10:38:44.523Z,4.18
2022-11-16T10:41:23.716Z,5.65
2022-11-16T10:43:50.151Z,5.70
2022-11-16T10:46:25.735Z,4.35
2022-11-16T10:48:54.465Z,5.80
2022-11-16T10:51:20.860Z,4.75
2022-11-16T10:53:47.312Z,5.00
2022-11-16T10:56:21.136Z,4.65
2022-11-16T10:58:55.191Z,4.63
2022-11-16T11:01:27.630Z,7.72
2022-11-16T11:03:54.069Z,5.40
2022-11-16T11:06:23.045Z,3.92
2022-11-16T11:08:49.593Z,5.95
2022-11-16T11:11:41.411Z,5.00
2022-11-16T11:14:12.489Z,4.50
2022-11-16T11:16:41.589Z,4.88
2022-11-16T11:19:18.403Z,4.68
2022-11-16T11:21:45.170Z,5.03
2022-11-16T11:24:43.497Z,8.43
2022-11-16T11:27:04.885Z,4.47
2022-11-16T11:29:32.534Z,5.43
2022-11-16T11:32:06.421Z,7.32
2022-11-16T11:34:39.322Z,7.28
2022-11-16T11:37:11.387Z,5.60
2022-11-16T11:39:37.858Z,7.05
2022-11-16T11:42:23.385Z,11.90
2022-11-16T11:44:58.565Z,15.05
2022-11-16T11:50:21.015Z,11.88
2022-11-16T11:52:47.521Z,12.07
2022-11-16T11:55:15.869Z,11.93
2022-11-16T11:57:43.663Z,15.13
2022-11-16T12:00:14.225Z,21.00
2022-11-16T12:02:59.283Z,18.88
2022-11-16T12:05:25.695Z,10.90
2022-11-16T12:07:52.261Z,12.77
2022-11-16T12:10:27.809Z,13.48
2022-11-16T12:18:07.042Z,12.18
2022-11-16T12:20:33.406Z,10.45
2022-11-16T12:23:18.450Z,12.25
2022-11-16T12:26:02.598Z,13.90
2022-11-16T12:28:51.091Z,11.55
2022-11-16T12:31:43.934Z,12.88
2022-11-16T12:34:10.258Z,12.45
2022-11-16T12:36:39.460Z,12.30
2022-11-16T12:39:19.518Z,10.57
2022-11-16T12:41:58.078Z,11.32
2022-11-16T12:44:33.849Z,12.73
2022-11-16T12:47:00.220Z,13.20
2022-11-16T12:49:45.269Z,9.98
2022-11-16T12:52:30.473Z,10.48
2022-11-16T12:55:24.851Z,9.93
2022-11-16T12:57:54.599Z,11.65
2022-11-16T13:00:21.015Z,9.60
2022-11-16T13:02:47.414Z,10.70
2022-11-16T13:05:18.017Z,11.43
2022-11-16T13:07:44.540Z,16.02
2022-11-16T13:10:21.723Z,11.07
2022-11-16T13:12:52.703Z,10.00
2022-11-16T13:15:32.814Z,10.57
2022-11-16T13:18:02.123Z,14.18
2022-11-16T13:20:31.465Z,12.13
2022-11-16T13:23:00.455Z,11.73
2022-11-16T13:25:31.962Z,10.32
2022-11-16T13:28:12.104Z,12.70
2022-11-16T13:30:50.388Z,10.15
2022-11-16T13:33:35.449Z,13.90
2022-11-16T13:36:21.754Z,12.05
2022-11-16T13:38:54.267Z,13.50
2022-11-16T13:41:28.444Z,14.07
2022-11-16T13:43:55.234Z,12.30
2022-11-16T13:46:53.750Z,12.88
2022-11-16T13:49:19.454Z,14.88
2022-11-16T13:52:22.025Z,14.68
2022-11-16T13:54:52.029Z,13.93
2022-11-16T13:57:24.905Z,15.93
2022-11-16T14:00:00.570Z,13.60
2022-11-16T14:04:56.260Z,10.93
2022-11-16T14:07:28.136Z,13.40
2022-11-16T14:09:54.600Z,18.17
2022-11-16T14:12:40.103Z,15.38
2022-11-16T14:15:17.111Z,15.65
2022-11-16T14:18:02.187Z,20.50
2022-11-16T14:20:37.893Z,14.35
2022-11-16T14:23:23.178Z,13.65
2022-11-16T14:25:58.873Z,17.47
2022-11-16T14:31:15.480Z,16.67
2022-11-16T14:33:42.200Z,17.30
2022-11-16T14:36:09.890Z,14.90
2022-11-16T14:38:40.424Z,16.63
2022-11-16T14:41:11.268Z,16.45
2022-11-16T14:43:42.646Z,15.02
2022-11-16T14:46:15.838Z,17.02
2022-11-16T14:48:44.117Z,18.15
2022-11-16T14:51:13.515Z,15.10
2022-11-16T14:53:41.647Z,17.63
2022-11-16T14:56:15.496Z,16.90
2022-11-16T14:58:52.200Z,14.82
2022-11-16T15:01:20.555Z,14.43
2022-11-16T15:03:50.017Z,15.63
2022-11-16T15:06:16.673Z,15.77
2022-11-16T15:08:44.525Z,15.43
2022-11-16T15:11:20.818Z,17.30
2022-11-16T15:13:47.533Z,17.60
2022-11-16T15:16:20.183Z,14.20
2022-11-16T15:18:57.339Z,19.63
2022-11-16T15:21:24.302Z,17.02
2022-11-16T15:24:15.593Z,16.80
2022-11-16T15:26:38.363Z,18.67
2022-11-16T15:29:04.729Z,17.42
2022-11-16T15:31:31.104Z,17.17
2022-11-16T15:33:57.590Z,15.48
2022-11-16T15:36:25.830Z,17.00
2022-11-16T15:38:56.721Z,17.75
2022-11-16T15:41:23.778Z,21.27
2022-11-16T15:44:13.285Z,27.33
2022-11-16T15:46:41.409Z,24.50
2022-11-16T15:49:13.167Z,20.42
2022-11-16T15:51:42.755Z,22.98
2022-11-16T15:54:21.759Z,23.23
2022-11-16T15:56:48.398Z,22.60
2022-11-16T15:59:19.483Z,25.38
2022-11-16T16:01:45.979Z,22.27
2022-11-16T16:04:16.720Z,24.80
2022-11-16T16:06:45.923Z,23.08
2022-11-16T16:09:31.115Z,23.52
2022-11-16T16:12:15.455Z,21.10
2022-11-16T16:14:41.974Z,24.08
2022-11-16T16:17:09.136Z,22.95
2022-11-16T16:19:43.048Z,21.75
2022-11-16T16:22:14.075Z,21.40
2022-11-16T16:24:45.220Z,22.42
2022-11-16T16:27:14.914Z,23.90
2022-11-16T16:29:41.498Z,25.63
2022-11-16T16:32:23.376Z,24.20
2022-11-16T16:34:49.732Z,23.42
2022-11-16T16:37:16.136Z,22.85
2022-11-16T16:39:42.660Z,20.67
2022-11-16T16:42:10.599Z,20.67
2022-11-16T16:44:37.068Z,17.58
2022-11-16T16:47:03.521Z,17.67
2022-11-16T16:49:30.046Z,19.13
2022-11-16T16:51:56.480Z,17.48
2022-11-16T16:54:22.894Z,18.15
2022-11-16T16:56:49.283Z,15.80
2022-11-16T16:59:15.688Z,18.23
2022-11-16T17:01:42.105Z,17.08
2022-11-16T17:04:08.718Z,17.08
2022-11-16T17:06:35.181Z,15.23
2022-11-16T17:09:01.564Z,18.20
2022-11-16T17:11:28.847Z,14.10
2022-11-16T17:13:55.391Z,16.52
2022-11-16T17:16:22.430Z,17.17
2022-11-16T17:18:53.470Z,17.13
2022-11-16T17:21:19.872Z,16.25
2022-11-16T17:23:46.277Z,20.67
2022-11-16T17:26:12.725Z,17.23
2022-11-16T17:28:39.077Z,16.02
2022-11-16T17:31:06.190Z,18.52
2022-11-16T17:33:36.734Z,18.83
2022-11-16T17:36:04.005Z,18.80
2022-11-16T17:38:31.316Z,19.13
2022-11-16T17:41:03.982Z,15.27
2022-11-16T17:43:30.385Z,15.13
2022-11-16T17:46:03.913Z,16.30
2022-11-16T17:48:30.293Z,13.30
2022-11-16T17:50:56.666Z,13.30
2022-11-16T17:53:23.900Z,14.52
2022-11-16T17:55:51.677Z,14.13
2022-11-16T17:58:18.079Z,15.25
2022-11-16T18:00:44.648Z,14.55
2022-11-16T18:03:11.047Z,17.80
2022-11-16T18:05:37.444Z,23.35
2022-11-16T18:08:05.102Z,30.45
2022-11-16T18:10:32.769Z,30.40
2022-11-16T18:12:59.166Z,26.30
2022-11-16T18:15:29.267Z,29.17
2022-11-16T18:17:56.150Z,32.80
2022-11-16T18:20:24.330Z,30.95
2022-11-16T18:22:50.680Z,30.92
2022-11-16T18:25:17.130Z,32.38
2022-11-16T18:27:43.503Z,26.50
2022-11-16T18:30:10.205Z,27.95
2022-11-16T18:32:36.644Z,23.73
2022-11-16T18:35:04.761Z,23.98
2022-11-16T18:37:31.153Z,22.38
2022-11-16T18:39:57.562Z,23.77
2022-11-16T18:42:23.970Z,20.77
2022-11-16T18:44:51.339Z,20.83
2022-11-16T18:47:17.897Z,17.40
2022-11-16T18:49:44.277Z,15.90
2022-11-16T18:52:11.048Z,15.23
2022-11-16T18:54:37.820Z,14.10
2022-11-16T18:57:04.438Z,14.57
2022-11-16T18:59:30.852Z,13.50
2022-11-16T19:01:57.224Z,20.63
2022-11-16T19:04:23.720Z,13.55
2022-11-16T19:06:50.167Z,13.85
2022-11-16T19:09:16.605Z,13.65
2022-11-16T19:11:42.986Z,14.63
2022-11-16T19:14:09.490Z,15.90
2022-11-16T19:16:36.168Z,13.25
2022-11-16T19:19:03.006Z,19.13
2022-11-16T19:21:29.748Z,20.60
2022-11-16T19:23:56.860Z,19.42
2022-11-16T19:26:24.379Z,21.45
2022-11-16T19:28:51.462Z,23.33
2022-11-16T19:31:19.282Z,21.52
2022-11-16T19:33:46.241Z,21.20
2022-11-16T19:36:12.701Z,21.55
2022-11-16T19:38:39.463Z,26.45
2022-11-16T19:41:06.639Z,25.77
2022-11-16T19:43:33.669Z,25.67
2022-11-16T19:46:04.896Z,30.77
2022-11-16T19:48:32.429Z,28.67
2022-11-16T19:51:08.888Z,29.15
2022-11-16T19:53:35.745Z,28.92
2022-11-16T19:56:02.791Z,26.20
2022-11-16T19:58:29.501Z,31.38
2022-11-16T20:01:03.290Z,29.65
2022-11-16T20:03:30.221Z,31.63
2022-11-16T20:06:11.739Z,29.65
2022-11-16T20:08:38.862Z,30.48
2022-11-16T20:11:15.356Z,28.98
2022-11-16T20:13:42.566Z,26.40
2022-11-16T20:16:10.179Z,28.88
2022-11-16T20:18:37.123Z,26.08
2022-11-16T20:21:05.228Z,23.90
2022-11-16T20:23:34.460Z,29.85
2022-11-16T20:26:05.408Z,29.60
2022-11-16T20:28:36.091Z,24.00
2022-11-16T20:31:05.174Z,17.92
2022-11-16T20:33:33.105Z,16.05
2022-11-16T20:36:00.548Z,13.30
2022-11-16T20:38:26.916Z,13.40
2022-11-16T20:40:53.328Z,14.48
2022-11-16T20:43:19.720Z,15.57
2022-11-16T20:45:51.275Z,14.32
2022-11-16T20:48:17.624Z,20.58
2022-11-16T20:50:45.553Z,15.55
2022-11-16T20:53:11.878Z,16.30
2022-11-16T20:55:38.417Z,15.65
2022-11-16T20:58:04.792Z,14.95
2022-11-16T21:00:31.239Z,14.98
2022-11-16T21:02:57.597Z,17.05
2022-11-16T21:05:23.975Z,16.20
2022-11-16T21:07:50.367Z,17.35
2022-11-16T21:10:19.761Z,18.20
2022-11-16T21:13:04.734Z,16.92
2022-11-16T21:15:31.100Z,16.77
2022-11-16T21:17:57.500Z,21.15
2022-11-16T21:20:28.348Z,18.48
2022-11-16T21:22:55.189Z,23.45
2022-11-16T21:25:21.625Z,19.48
2022-11-16T21:27:48.196Z,19.05
2022-11-16T21:30:14.635Z,19.73
2022-11-16T21:32:41.072Z,20.48
2022-11-16T21:35:07.645Z,20.88
2022-11-16T21:37:33.982Z,20.98
2022-11-16T21:40:00.335Z,19.20
2022-11-16T21:42:26.756Z,18.77
2022-11-16T21:44:53.128Z,21.33
2022-11-16T21:47:21.200Z,20.40
2022-11-16T21:50:08.697Z,21.55
2022-11-16T21:52:34.023Z,20.42
2022-11-16T21:55:00.579Z,20.42
2022-11-16T21:57:29.727Z,17.98
2022-11-16T21:59:56.185Z,17.30
2022-11-16T22:02:22.554Z,18.83
2022-11-16T22:05:07.702Z,13.93
2022-11-16T22:07:34.578Z,14.50
2022-11-16T22:10:04.433Z,14.43
2022-11-16T22:12:30.845Z,16.45
2022-11-16T22:14:58.459Z,15.38
2022-11-16T22:17:25.207Z,16.27
2022-11-16T22:19:51.601Z,15.82
2022-11-16T22:22:18.087Z,16.90
2022-11-16T22:24:44.636Z,16.25
2022-11-16T22:27:11.443Z,18.52
2022-11-16T22:29:37.865Z,17.77
2022-11-16T22:32:04.464Z,19.90
2022-11-16T22:34:30.964Z,19.90
2022-11-16T22:36:57.283Z,20.67
2022-11-16T22:39:23.761Z,25.13
2022-11-16T22:41:50.312Z,22.38
2022-11-16T22:44:16.640Z,20.77
2022-11-16T22:46:42.988Z,22.25
2022-11-16T22:49:09.432Z,23.83
2022-11-16T22:51:36.041Z,23.83
2022-11-16T22:54:03.257Z,23.65
2022-11-16T22:56:30.563Z,25.75
2022-11-16T22:58:57.089Z,27.60
2022-11-16T23:01:23.938Z,23.13
2022-11-16T23:03:50.660Z,24.13
2022-11-16T23:06:17.235Z,22.75
2022-11-16T23:08:43.659Z,21.90
2022-11-16T23:11:32.021Z,22.83
2022-11-16T23:14:17.543Z,22.00
2022-11-16T23:16:44.488Z,15.38
2022-11-16T23:19:30.571Z,16.88
2022-11-16T23:22:15.483Z,19.67
2022-11-16T23:25:00.986Z,19.50
2022-11-16T23:27:31.614Z,18.02
2022-11-16T23:30:02.036Z,18.77
2022-11-16T23:32:28.953Z,16.75
2022-11-16T23:34:55.342Z,16.48
2022-11-16T23:37:21.803Z,14.95
2022-11-16T23:39:48.210Z,15.90
2022-11-16T23:42:33.053Z,14.13
2022-11-16T23:44:59.507Z,12.85
2022-11-16T23:47:26.024Z,13.73
2022-11-16T23:49:52.416Z,12.15
2022-11-16T23:52:18.780Z,12.68
2022-11-16T23:54:45.345Z,12.68
2022-11-16T23:57:11.789Z,13.43
2022-11-16T23:59:38.131Z,14.43
